Time;durP1;ratioP1;P1;durP2;ratioP2;P2;SDS_P1;SDS_P2;PMS_P1;PMS_P2;Temp;Humidity;BMP_temperature;BMP_pressure;BME280_temperature;BME280_humidity;BME280_pressure;Samples;Min_cycle;Max_cycle;Signal;HPM_P1;HPM_P2
2021/05/13 00:00:56;;;;;;;10.33;9.00;;;;;;;13.42;63.90;97224.72;8281108;28;20480;-72
2021/05/13 00:04:58;;;;;;;9.30;8.30;;;;;;;13.47;63.94;97217.44;8282097;28;20635;-72
2021/05/13 00:09:01;;;;;;;9.73;8.53;;;;;;;13.46;63.52;97221.81;8304791;28;20229;-72
2021/05/13 00:13:06;;;;;;;11.57;10.30;;;;;;;13.38;63.79;97233.66;8314523;28;20215;-72
2021/05/13 00:17:08;;;;;;;9.83;8.57;;;;;;;13.39;63.96;97222.34;8314654;28;20200;-72
2021/05/13 00:21:11;;;;;;;10.73;8.27;;;;;;;13.37;64.06;97227.63;8314104;28;20208;-72
2021/05/13 00:25:14;;;;;;;12.30;8.53;;;;;;;13.38;63.59;97226.69;8314221;28;20235;-72
2021/05/13 00:29:21;;;;;;;10.27;7.50;;;;;;;13.43;63.94;97227.22;8314558;28;20201;-72
2021/05/13 00:33:23;;;;;;;10.33;7.90;;;;;;;13.47;63.59;97225.25;8314836;28;20189;-72
2021/05/13 00:37:26;;;;;;;9.30;8.40;;;;;;;13.33;64.00;97218.38;8314207;28;20212;-72
2021/05/13 00:41:28;;;;;;;10.13;9.13;;;;;;;13.27;63.91;97219.59;8314030;28;20281;-72
2021/05/13 00:45:32;;;;;;;9.80;8.80;;;;;;;13.25;63.72;97211.06;8313781;28;20233;-72
2021/05/13 00:49:34;;;;;;;11.50;8.77;;;;;;;13.17;64.23;97208.13;8314851;28;20211;-72
2021/05/13 00:53:36;;;;;;;11.60;9.77;;;;;;;13.00;64.51;97203.22;8321187;28;20208;-72
2021/05/13 00:57:43;;;;;;;11.40;9.67;;;;;;;13.05;64.01;97194.19;8321202;28;20201;-72
2021/05/13 01:01:49;;;;;;;11.27;10.00;;;;;;;13.03;63.71;97198.66;8321088;28;20208;-72
2021/05/13 01:05:51;;;;;;;11.77;9.90;;;;;;;12.94;64.11;97198.44;8290407;28;20280;-72
2021/05/13 01:09:54;;;;;;;10.03;9.07;;;;;;;13.01;63.72;97197.09;8287183;28;20206;-72
2021/05/13 01:14:01;;;;;;;11.60;10.40;;;;;;;13.03;63.69;97203.03;8287169;28;20237;-72
2021/05/13 01:18:08;;;;;;;10.03;9.13;;;;;;;12.98;64.22;97203.31;8287142;28;20201;-72
2021/05/13 01:22:12;;;;;;;10.80;9.70;;;;;;;12.97;64.08;97188.69;8287344;28;20228;-72
2021/05/13 01:26:17;;;;;;;11.53;10.43;;;;;;;13.03;63.89;97188.25;8287007;28;20230;-72
2021/05/13 01:30:20;;;;;;;11.47;10.37;;;;;;;13.04;63.82;97197.75;8286690;28;20309;-72
2021/05/13 01:34:23;;;;;;;11.43;10.23;;;;;;;13.02;64.21;97185.75;8286426;28;20477;-72
2021/05/13 01:38:26;;;;;;;11.87;10.40;;;;;;;13.00;63.91;97187.63;8286654;28;20493;-72
2021/05/13 01:42:28;;;;;;;11.67;10.57;;;;;;;12.97;63.56;97185.25;8286149;28;20519;-72
2021/05/13 01:46:31;;;;;;;12.63;10.50;;;;;;;12.96;63.66;97181.81;8286378;28;20566;-72
2021/05/13 01:50:35;;;;;;;11.30;9.97;;;;;;;12.95;63.78;97180.16;8285934;28;20260;-72
2021/05/13 01:54:39;;;;;;;11.47;10.27;;;;;;;12.89;63.96;97177.97;8285928;28;20210;-72
2021/05/13 01:58:41;;;;;;;10.33;9.33;;;;;;;12.90;63.87;97166.63;8285633;28;20386;-72
2021/05/13 02:02:48;;;;;;;9.80;8.80;;;;;;;12.92;63.98;97167.34;8284888;28;20224;-72
2021/05/13 02:06:50;;;;;;;10.83;9.73;;;;;;;12.81;64.11;97162.03;8285274;28;20248;-72
2021/05/13 02:10:54;;;;;;;9.87;8.97;;;;;;;12.83;64.09;97165.34;8285747;28;20208;-72
2021/05/13 02:14:56;;;;;;;11.90;9.63;;;;;;;12.94;63.70;97162.06;8285127;28;20216;-72
2021/05/13 02:18:59;;;;;;;10.93;9.70;;;;;;;12.86;63.54;97159.97;8285292;28;20351;-72
2021/05/13 02:23:01;;;;;;;12.27;9.53;;;;;;;12.76;63.88;97153.72;8285010;28;20213;-72
2021/05/13 02:27:05;;;;;;;11.07;9.37;;;;;;;12.83;63.89;97145.44;8284912;28;20236;-72
2021/05/13 02:31:08;;;;;;;10.00;8.57;;;;;;;12.85;63.55;97132.31;8284861;28;20212;-72
2021/05/13 02:35:13;;;;;;;10.07;9.03;;;;;;;12.75;63.98;97132.09;8284824;28;20206;-72
2021/05/13 02:39:15;;;;;;;9.87;8.93;;;;;;;12.81;63.46;97130.84;8284620;28;20212;-72
2021/05/13 02:43:19;;;;;;;9.20;8.40;;;;;;;12.79;63.81;97130.13;8284613;28;20202;-72
2021/05/13 02:47:21;;;;;;;10.97;8.13;;;;;;;12.83;63.33;97123.78;8284424;28;20236;-72
2021/05/13 02:51:24;;;;;;;10.57;8.90;;;;;;;12.81;63.63;97136.91;8284710;28;20373;-72
2021/05/13 02:55:26;;;;;;;9.53;8.60;;;;;;;12.78;63.66;97131.91;8284326;28;20224;-72
2021/05/13 02:59:39;;;;;;;9.53;8.53;;;;;;;12.84;63.88;97128.88;8284082;28;20209;-72
2021/05/13 03:03:42;;;;;;;9.43;8.53;;;;;;;12.79;63.88;97122.34;8283580;28;20212;-72
2021/05/13 03:07:47;;;;;;;10.80;8.83;;;;;;;12.79;64.05;97123.16;8284008;28;20309;-72
2021/05/13 03:11:49;;;;;;;9.17;8.27;;;;;;;12.78;63.91;97120.69;8283405;28;20201;-72
2021/05/13 03:15:52;;;;;;;9.40;8.50;;;;;;;12.77;64.36;97116.41;8282124;28;20206;-72
2021/05/13 03:19:58;;;;;;;10.80;8.73;;;;;;;12.69;64.09;97117.75;8283211;28;20483;-72
2021/05/13 03:24:06;;;;;;;13.00;8.63;;;;;;;12.78;64.31;97125.88;8283478;28;20528;-72
2021/05/13 03:28:08;;;;;;;8.53;7.67;;;;;;;12.79;64.22;97127.53;8282803;28;20252;-72
2021/05/13 03:32:12;;;;;;;10.73;7.97;;;;;;;12.77;64.07;97119.84;8282600;28;20202;-72
2021/05/13 03:36:14;;;;;;;9.30;8.30;;;;;;;12.79;63.85;97111.94;8282825;28;20216;-72
2021/05/13 03:40:16;;;;;;;9.80;8.07;;;;;;;12.79;64.09;97122.34;8282442;28;20217;-72
2021/05/13 03:44:19;;;;;;;9.37;7.90;;;;;;;12.82;64.30;97112.56;8282320;28;20202;-72
2021/05/13 03:48:22;;;;;;;9.03;8.13;;;;;;;12.75;64.01;97121.69;8282594;28;20201;-72
2021/05/13 03:52:24;;;;;;;8.63;7.57;;;;;;;12.78;63.90;97118.91;8281852;28;20334;-72
2021/05/13 03:56:27;;;;;;;8.77;7.50;;;;;;;12.74;64.13;97117.47;8282510;28;20216;-72
2021/05/13 04:00:37;;;;;;;11.67;8.03;;;;;;;12.84;63.79;97123.69;8282943;28;20205;-72
2021/05/13 04:04:40;;;;;;;10.57;8.17;;;;;;;12.78;63.87;97124.09;8282236;28;20322;-72
2021/05/13 04:08:43;;;;;;;9.33;7.57;;;;;;;12.89;63.77;97123.41;8281428;28;20540;-72
2021/05/13 04:12:50;;;;;;;11.57;7.57;;;;;;;12.81;63.84;97113.53;8281895;28;20571;-72
2021/05/13 04:16:54;;;;;;;8.80;7.90;;;;;;;12.77;63.99;97116.41;8281483;28;20346;-72
2021/05/13 04:20:58;;;;;;;9.50;8.13;;;;;;;12.81;64.39;97120.47;8281560;28;20206;-72
2021/05/13 04:25:01;;;;;;;8.97;8.07;;;;;;;12.77;64.45;97122.44;8281096;28;20229;-72
2021/05/13 04:29:04;;;;;;;9.30;7.77;;;;;;;12.80;64.20;97111.84;8281324;28;20332;-72
2021/05/13 04:33:06;;;;;;;10.03;8.10;;;;;;;12.81;64.28;97113.53;8281822;28;20201;-72
2021/05/13 04:37:10;;;;;;;9.17;8.07;;;;;;;12.80;63.99;97113.63;8281321;28;20216;-72
2021/05/13 04:41:12;;;;;;;8.53;7.60;;;;;;;12.79;64.36;97104.16;8281195;28;20317;-72
2021/05/13 04:45:14;;;;;;;8.50;7.70;;;;;;;12.86;64.40;97115.81;8281529;28;20236;-72
2021/05/13 04:49:17;;;;;;;10.13;8.00;;;;;;;12.83;64.16;97122.03;8281810;28;20210;-72
2021/05/13 04:53:20;;;;;;;10.23;7.90;;;;;;;12.93;64.20;97114.47;8281134;28;20208;-72
2021/05/13 04:57:23;;;;;;;9.47;8.50;;;;;;;12.88;64.14;97093.97;8281613;28;20241;-72
2021/05/13 05:01:26;;;;;;;11.07;8.70;;;;;;;12.89;64.65;97103.44;8281321;28;20205;-72
2021/05/13 05:05:29;;;;;;;10.80;8.30;;;;;;;12.77;64.98;97103.41;8280874;28;20245;-73
2021/05/13 05:09:32;;;;;;;9.63;8.60;;;;;;;12.93;64.53;97106.66;8280935;28;20216;-73
2021/05/13 05:13:35;;;;;;;10.20;8.07;;;;;;;13.01;65.06;97101.75;8281004;28;20205;-72
2021/05/13 05:17:38;;;;;;;9.50;8.50;;;;;;;13.09;64.69;97103.84;8281021;28;20224;-73
2021/05/13 05:21:41;;;;;;;10.77;8.87;;;;;;;13.12;65.19;97101.06;8281205;28;20205;-72
2021/05/13 05:25:44;;;;;;;10.77;9.10;;;;;;;13.10;65.17;97098.53;8281060;28;20226;-72
2021/05/13 05:29:46;;;;;;;13.07;9.30;;;;;;;13.16;64.72;97096.47;8280870;28;20377;-72
2021/05/13 05:33:49;;;;;;;13.33;10.20;;;;;;;13.04;65.20;97091.19;8280428;28;20209;-72
2021/05/13 05:37:51;;;;;;;10.70;9.40;;;;;;;13.06;65.02;97091.91;8283403;28;20449;-73
2021/05/13 05:41:55;;;;;;;10.70;9.60;;;;;;;12.94;65.99;97092.72;8286799;28;20215;-73
2021/05/13 05:45:57;;;;;;;11.87;9.60;;;;;;;13.20;65.45;97095.31;8286299;28;20229;-73
2021/05/13 05:50:00;;;;;;;12.27;9.77;;;;;;;13.28;65.33;97098.22;8286549;28;20252;-72
2021/05/13 05:54:02;;;;;;;11.03;9.93;;;;;;;13.27;65.37;97092.19;8286183;28;20256;-73
2021/05/13 05:58:06;;;;;;;10.70;9.60;;;;;;;13.45;64.85;97095.31;8285726;28;20209;-73
2021/05/13 06:02:08;;;;;;;10.63;9.53;;;;;;;13.43;65.07;97091.97;8285863;28;20209;-72
2021/05/13 06:06:11;;;;;;;10.33;9.30;;;;;;;13.47;65.16;97090.81;8274058;28;20332;-74
2021/05/13 06:10:15;;;;;;;10.40;9.40;;;;;;;13.52;64.95;97087.06;8301468;28;20215;-74
2021/05/13 06:14:18;;;;;;;10.63;9.63;;;;;;;13.57;64.81;97088.41;8301131;28;20201;-73
2021/05/13 06:18:20;;;;;;;10.40;9.13;;;;;;;13.64;65.51;97083.63;8300549;28;20519;-73
2021/05/13 06:22:23;;;;;;;13.00;10.37;;;;;;;13.73;65.62;97089.91;8301009;28;20215;-73
2021/05/13 06:26:27;;;;;;;11.63;9.80;;;;;;;13.69;65.17;97089.31;8298645;28;20548;-73
2021/05/13 06:30:38;;;;;;;13.90;9.03;;;;;;;13.83;65.00;97089.16;8300863;28;20193;-74
2021/05/13 06:34:41;;;;;;;10.03;8.83;;;;;;;13.79;65.36;97092.09;8300573;28;20215;-74
2021/05/13 06:38:44;;;;;;;11.87;9.37;;;;;;;13.84;65.55;97088.25;8287751;28;20205;-73
2021/05/13 06:42:47;;;;;;;16.63;8.63;;;;;;;13.99;64.89;97094.13;8283759;28;20198;-73
2021/05/13 06:46:50;;;;;;;10.33;9.00;;;;;;;13.98;65.05;97083.81;8283585;28;20418;-74
2021/05/13 06:50:53;;;;;;;10.03;8.57;;;;;;;14.00;64.67;97084.53;8283626;28;20500;-73
2021/05/13 06:54:56;;;;;;;10.97;8.63;;;;;;;14.05;65.02;97092.81;8283690;28;20274;-73
2021/05/13 06:58:59;;;;;;;11.10;8.30;;;;;;;14.02;65.28;97091.28;8281146;28;20194;-74
2021/05/13 07:03:02;;;;;;;9.57;8.67;;;;;;;14.05;65.09;97100.63;8283449;28;20208;-74
2021/05/13 07:07:05;;;;;;;11.23;10.03;;;;;;;13.87;66.14;97090.59;8283758;28;20241;-73
2021/05/13 07:11:07;;;;;;;10.03;8.80;;;;;;;14.05;65.24;97093.66;8283881;28;20209;-74
2021/05/13 07:15:10;;;;;;;11.20;8.20;;;;;;;14.18;64.81;97090.97;8283517;28;20202;-73
2021/05/13 07:19:14;;;;;;;8.83;8.00;;;;;;;14.14;64.95;97091.34;8283455;28;20208;-73
2021/05/13 07:23:16;;;;;;;8.43;7.60;;;;;;;14.14;64.48;97086.94;8283705;28;20468;-74
2021/05/13 07:27:20;;;;;;;8.70;7.47;;;;;;;14.26;64.69;97086.06;8282976;28;20225;-74
2021/05/13 07:31:23;;;;;;;10.20;7.70;;;;;;;14.33;64.09;97086.44;8282513;28;20212;-74
2021/05/13 07:35:26;;;;;;;7.87;7.07;;;;;;;14.38;64.01;97086.94;8282667;28;20210;-73
2021/05/13 07:39:29;;;;;;;9.47;7.60;;;;;;;14.34;64.19;97079.47;8282423;28;20202;-74
2021/05/13 07:43:31;;;;;;;7.90;6.87;;;;;;;14.35;64.99;97084.53;8282278;28;20210;-74
2021/05/13 07:47:37;;;;;;;10.07;7.13;;;;;;;14.51;64.36;97086.88;8282412;28;20401;-74
2021/05/13 07:51:42;;;;;;;9.60;6.77;;;;;;;14.65;63.80;97091.91;8282968;28;20201;-74
2021/05/13 07:55:44;;;;;;;9.27;6.40;;;;;;;14.73;62.12;97088.72;8282916;28;20212;-72
2021/05/13 07:59:46;;;;;;;8.60;6.70;;;;;;;14.79;63.53;97093.50;8282228;28;20201;-74
2021/05/13 08:03:49;;;;;;;7.63;6.57;;;;;;;14.86;63.13;97092.06;8282446;28;20391;-73
2021/05/13 08:07:52;;;;;;;7.23;5.67;;;;;;;14.78;61.94;97088.38;8283153;28;20249;-71
2021/05/13 08:11:54;;;;;;;8.57;5.13;;;;;;;15.09;62.48;97086.03;8282250;28;20206;-71
2021/05/13 08:15:57;;;;;;;7.23;5.80;;;;;;;15.17;61.75;97081.91;8281215;28;20198;-72
2021/05/13 08:20:00;;;;;;;8.23;4.97;;;;;;;15.18;61.28;97080.94;8281047;28;20198;-73
2021/05/13 08:24:04;;;;;;;43.47;17.13;;;;;;;15.43;62.48;97081.66;8281652;28;20281;-73
2021/05/13 08:28:06;;;;;;;276.73;117.83;;;;;;;15.92;67.07;97080.44;8281210;28;20485;-73
2021/05/13 08:32:09;;;;;;;333.37;203.43;;;;;;;16.25;65.73;97077.81;8281977;28;20276;-73
2021/05/13 08:36:11;;;;;;;351.13;168.23;;;;;;;16.40;64.97;97077.38;8281876;28;20356;-72
2021/05/13 08:40:14;;;;;;;57.57;28.60;;;;;;;16.52;59.68;97078.16;8281318;28;20202;-73
2021/05/13 08:44:18;;;;;;;16.07;7.50;;;;;;;16.52;56.82;97065.09;8281451;28;20209;-72
2021/05/13 08:48:20;;;;;;;20.83;11.17;;;;;;;16.95;57.91;97073.78;8281742;28;20233;-73
2021/05/13 08:52:25;;;;;;;14.03;6.83;;;;;;;17.36;56.18;97077.25;8281661;28;20201;-72
2021/05/13 08:56:29;;;;;;;10.60;5.87;;;;;;;17.77;54.31;97072.84;8281623;28;20212;-72
2021/05/13 09:00:32;;;;;;;9.60;5.20;;;;;;;18.12;54.27;97066.28;8281351;28;20461;-72
2021/05/13 09:04:37;;;;;;;7.97;4.23;;;;;;;18.02;51.86;97066.28;8281701;28;20271;-73
2021/05/13 09:08:42;;;;;;;6.03;3.90;;;;;;;17.61;52.44;97067.28;8281290;28;20237;-72
2021/05/13 09:12:48;;;;;;;6.13;3.80;;;;;;;17.85;53.37;97065.16;8284273;28;20228;-72
2021/05/13 09:16:51;;;;;;;6.07;3.73;;;;;;;18.01;52.82;97066.41;8286821;28;20206;-71
2021/05/13 09:21:02;;;;;;;6.33;3.73;;;;;;;18.26;51.97;97058.03;8287144;28;20206;-71
2021/05/13 09:25:07;;;;;;;10.03;3.90;;;;;;;18.84;50.37;97057.16;8286449;28;20459;-71
2021/05/13 09:29:12;;;;;;;8.33;3.40;;;;;;;19.12;49.83;97058.03;8285742;28;20413;-73
2021/05/13 09:33:14;;;;;;;7.13;3.40;;;;;;;19.39;46.95;97052.97;8285805;28;20198;-73
2021/05/13 09:37:16;;;;;;;10.30;3.10;;;;;;;19.60;48.55;97056.16;8291339;28;20299;-74
2021/05/13 09:41:30;;;;;;;7.93;3.40;;;;;;;19.64;48.13;97043.56;8296708;28;20210;-73
2021/05/13 09:45:42;;;;;;;11.60;2.93;;;;;;;19.66;47.28;97050.31;8286124;28;20456;-69
2021/05/13 09:50:03;;;;;;;21.97;8.03;;;;;;;19.79;47.42;97050.00;8285830;28;20202;-71
2021/05/13 09:54:08;;;;;;;12.77;4.60;;;;;;;19.78;47.13;97040.47;8286200;28;20216;-73
2021/05/13 09:58:11;;;;;;;21.70;4.37;;;;;;;19.66;47.74;97042.44;8285410;28;20302;-72
2021/05/13 10:02:14;;;;;;;8.27;3.23;;;;;;;19.69;47.14;97041.34;8285149;28;20262;-75
2021/05/13 10:06:16;;;;;;;6.47;3.07;;;;;;;19.02;49.10;97038.03;8285233;28;20238;-84
2021/05/13 10:10:19;;;;;;;6.03;3.20;;;;;;;18.92;48.33;97027.59;8286587;28;20214;-80
2021/05/13 10:14:23;;;;;;;7.53;3.60;;;;;;;18.82;48.65;97024.19;8286803;28;20218;-80
2021/05/13 10:18:28;;;;;;;5.63;3.20;;;;;;;18.59;50.36;97026.28;8286665;28;20209;-81
2021/05/13 10:22:30;;;;;;;8.60;3.67;;;;;;;18.49;50.12;97026.28;8286092;28;20209;-72
2021/05/13 10:26:47;;;;;;;9.50;2.57;;;;;;;19.10;49.94;97023.25;8284907;28;20292;-70
2021/05/13 10:30:59;;;;;;;7.73;2.83;;;;;;;19.29;49.06;97019.72;8285145;28;20520;-71
2021/05/13 10:35:08;;;;;;;9.93;3.57;;;;;;;19.34;48.88;97017.47;8285295;28;20458;-77
2021/05/13 10:39:12;;;;;;;13.73;3.27;;;;;;;19.25;48.94;97002.59;8285062;28;20485;-70
2021/05/13 10:43:15;;;;;;;11.00;3.03;;;;;;;19.19;48.17;97004.97;8284449;28;20218;-69
2021/05/13 10:47:27;;;;;;;4.20;2.80;;;;;;;19.13;48.68;97001.97;8291979;28;20289;-71
2021/05/13 10:51:30;;;;;;;9.43;3.60;;;;;;;19.08;49.29;97003.38;8277963;28;20206;-71
2021/05/13 10:55:37;;;;;;;9.10;3.37;;;;;;;19.00;49.16;96998.00;8283978;28;20225;-73
2021/05/13 10:59:40;;;;;;;13.67;3.30;;;;;;;18.95;49.82;96988.78;8283632;28;20220;-70
2021/05/13 11:03:42;;;;;;;11.07;3.50;;;;;;;18.88;49.91;96994.75;8296237;28;20384;-72
2021/05/13 11:07:46;;;;;;;8.17;3.33;;;;;;;18.90;49.93;96987.56;8315644;28;20522;-73
2021/05/13 11:12:11;;;;;;;15.70;3.93;;;;;;;19.01;49.63;96982.13;8316480;28;20227;-72
2021/05/13 11:16:45;;;;;;;9.70;3.37;;;;;;;19.00;49.33;96979.63;8304380;28;20602;-69
2021/05/13 11:20:54;;;;;;;7.53;3.37;;;;;;;19.01;49.68;96983.94;8283345;28;20213;-71
2021/05/13 11:24:57;;;;;;;10.23;3.30;;;;;;;18.96;50.04;96979.09;8283676;28;20269;-72
2021/05/13 11:29:00;;;;;;;7.70;3.13;;;;;;;19.06;49.57;96976.47;8283252;28;20236;-71
2021/05/13 11:33:02;;;;;;;12.57;3.27;;;;;;;19.07;50.23;96973.66;8283227;28;20459;-72
2021/05/13 11:37:05;;;;;;;15.07;3.73;;;;;;;18.90;49.74;96980.50;8281638;28;20210;-75
2021/05/13 11:41:09;;;;;;;12.73;2.80;;;;;;;18.99;50.04;96976.19;8282096;28;20203;-71
2021/05/13 11:45:22;;;;;;;13.73;3.93;;;;;;;18.90;49.93;96977.88;8282428;28;20202;-71
2021/05/13 11:49:25;;;;;;;15.00;3.70;;;;;;;18.88;49.40;96960.66;8282097;28;20256;-73
2021/05/13 11:53:28;;;;;;;13.27;3.10;;;;;;;18.93;49.61;96968.91;8282750;28;20226;-72
2021/05/13 11:57:31;;;;;;;8.20;3.13;;;;;;;18.94;48.88;96962.69;8282077;28;20311;-73
2021/05/13 12:01:34;;;;;;;7.03;3.17;;;;;;;18.88;48.93;96955.41;8282309;28;20384;-71
2021/05/13 12:05:49;;;;;;;13.07;3.10;;;;;;;18.93;48.63;96961.88;8292444;28;20257;-72
2021/05/13 12:09:53;;;;;;;8.20;3.40;;;;;;;18.75;48.99;96968.78;8279263;28;20248;-72
2021/05/13 12:13:57;;;;;;;11.47;3.97;;;;;;;18.80;48.58;96965.75;8281472;28;20205;-83
2021/05/13 12:18:00;;;;;;;12.03;4.73;;;;;;;18.51;47.99;96967.50;8283745;28;20229;-83
2021/05/13 12:22:04;;;;;;;7.50;3.67;;;;;;;18.46;47.97;96961.84;8282132;28;20228;-83
2021/05/13 12:26:07;;;;;;;5.23;3.10;;;;;;;18.16;48.35;96955.00;8281702;28;20216;-80
2021/05/13 12:30:12;;;;;;;8.00;3.40;;;;;;;17.81;48.82;96956.38;8281942;28;20201;-85
2021/05/13 12:34:33;;;;;;;5.63;3.10;;;;;;;17.89;49.13;96956.53;8285102;28;20231;-83
2021/05/13 12:38:41;;;;;;;6.37;3.40;;;;;;;17.74;48.93;96950.03;8253695;28;20261;-85
2021/05/13 12:42:43;;;;;;;6.37;2.90;;;;;;;17.71;49.29;96956.38;8252996;28;20220;-85
2021/05/13 12:46:48;;;;;;;8.13;3.20;;;;;;;17.23;48.55;96959.78;8255630;28;20234;-85
2021/05/13 12:51:00;;;;;;;7.50;3.00;;;;;;;17.45;49.61;96957.88;8259002;28;20209;-84
2021/05/13 12:55:15;;;;;;;6.13;2.83;;;;;;;17.46;49.62;96957.75;8259035;28;20213;-85
2021/05/13 12:59:18;;;;;;;8.83;2.90;;;;;;;17.45;49.54;96958.69;8259067;28;20210;-84
2021/05/13 13:03:30;;;;;;;5.77;2.97;;;;;;;17.42;49.60;96953.75;8259011;28;20381;-85
2021/05/13 13:07:37;;;;;;;4.17;2.60;;;;;;;17.41;49.36;96957.31;8257976;28;20242;-85
2021/05/13 13:11:40;;;;;;;6.27;3.07;;;;;;;17.33;50.36;96959.78;8258570;28;20202;-84
2021/05/13 13:15:46;;;;;;;6.50;2.93;;;;;;;17.32;49.95;96955.50;8257872;28;20221;-84
2021/05/13 13:20:08;;;;;;;7.40;3.10;;;;;;;17.41;50.23;96953.88;8257867;28;20202;-85
2021/05/13 13:24:17;;;;;;;5.30;2.70;;;;;;;17.31;50.96;96959.91;8258039;28;20187;-85
2021/05/13 13:28:20;;;;;;;6.17;2.40;;;;;;;17.45;49.65;96958.69;8257367;28;20226;-85
2021/05/13 13:32:22;;;;;;;6.40;2.53;;;;;;;17.50;49.73;96958.31;8257356;28;20279;-85
2021/05/13 13:36:26;;;;;;;7.33;2.80;;;;;;;17.45;50.04;96961.31;8272310;28;20202;-85
2021/05/13 13:40:29;;;;;;;4.83;2.50;;;;;;;17.47;50.25;96958.56;8289615;28;20201;-85
2021/05/13 13:44:33;;;;;;;8.23;2.87;;;;;;;17.41;50.46;96961.72;8290114;28;20542;-86
2021/05/13 13:48:36;;;;;;;6.27;2.90;;;;;;;17.42;49.58;96952.91;8289558;28;20237;-85
2021/05/13 13:52:39;;;;;;;8.03;2.90;;;;;;;17.27;51.47;96960.31;8289288;28;20206;-85
2021/05/13 13:56:41;;;;;;;6.27;3.30;;;;;;;17.15;53.30;96984.00;8288628;28;20202;-85
2021/05/13 14:00:44;;;;;;;6.00;2.17;;;;;;;16.03;56.32;96985.56;8289221;28;20202;-84
2021/05/13 14:04:47;;;;;;;6.60;2.70;;;;;;;15.49;59.86;97009.91;8288601;28;20467;-85
2021/05/13 14:08:50;;;;;;;6.30;2.60;;;;;;;15.34;60.39;97007.53;8288813;28;20244;-82
2021/05/13 14:12:53;;;;;;;6.63;2.83;;;;;;;15.02;60.89;97002.25;8288594;28;20202;-85
2021/05/13 14:16:55;;;;;;;4.33;1.77;;;;;;;14.92;60.23;97003.91;8287761;28;20206;-84
2021/05/13 14:20:58;;;;;;;4.27;1.90;;;;;;;14.83;59.68;96998.47;8287023;28;20202;-83
2021/05/13 14:25:02;;;;;;;5.97;1.70;;;;;;;14.66;60.19;96999.75;8286394;28;20268;-83
2021/05/13 14:29:04;;;;;;;6.43;1.50;;;;;;;14.89;60.31;96989.34;8285802;28;20288;-83
2021/05/13 14:33:07;;;;;;;3.50;2.00;;;;;;;15.07;60.32;96976.66;8286419;28;20217;-83
2021/05/13 14:37:10;;;;;;;4.07;2.40;;;;;;;15.31;59.98;96973.91;8286424;28;20437;-83
2021/05/13 14:41:13;;;;;;;5.87;4.67;;;;;;;15.51;59.91;96971.47;8286037;28;20488;-83
2021/05/13 14:45:16;;;;;;;4.20;3.30;;;;;;;15.56;60.04;96953.66;8286156;28;20212;-82
2021/05/13 14:49:24;;;;;;;5.80;4.00;;;;;;;15.63;60.69;96950.44;8286039;28;20229;-83
2021/05/13 14:53:26;;;;;;;4.67;2.70;;;;;;;15.72;59.06;96920.13;8286868;28;20224;-84
2021/05/13 14:57:31;;;;;;;3.23;1.90;;;;;;;15.72;59.82;96929.75;8287633;28;20516;-83
2021/05/13 15:01:34;;;;;;;2.87;1.57;;;;;;;15.79;59.27;96920.50;8284214;28;20385;-79
2021/05/13 15:05:38;;;;;;;2.53;1.33;;;;;;;15.95;58.55;96917.44;8284279;28;20238;-82
2021/05/13 15:09:40;;;;;;;6.30;3.20;;;;;;;16.02;58.47;96918.59;8284509;28;20598;-84
2021/05/13 15:13:43;;;;;;;3.83;2.37;;;;;;;15.99;59.47;96916.25;8284674;28;20208;-82
2021/05/13 15:17:46;;;;;;;9.83;6.00;;;;;;;16.09;59.30;96911.06;8284302;28;20206;-83
2021/05/13 15:21:49;;;;;;;4.20;3.00;;;;;;;16.15;59.36;96919.25;8284297;28;20442;-83
2021/05/13 15:25:51;;;;;;;9.33;6.03;;;;;;;16.15;60.53;96906.19;8284201;28;20530;-87
2021/05/13 15:29:55;;;;;;;5.27;3.00;;;;;;;16.29;59.06;96902.41;8283481;28;20226;-84
2021/05/13 15:33:57;;;;;;;8.37;3.83;;;;;;;16.45;58.83;96907.19;8283278;28;20206;-86
2021/05/13 15:37:59;;;;;;;3.57;1.97;;;;;;;16.52;57.88;96904.84;8288316;28;20287;-83
2021/05/13 15:42:02;;;;;;;10.37;2.83;;;;;;;16.63;60.17;96903.94;8288468;28;20508;-79
2021/05/13 15:46:05;;;;;;;5.03;2.20;;;;;;;16.75;59.27;96902.88;8277701;28;20197;-81
2021/05/13 15:50:09;;;;;;;5.90;1.60;;;;;;;16.67;60.02;96900.09;8276845;28;20238;-80
2021/05/13 15:54:11;;;;;;;3.40;1.67;;;;;;;16.80;59.07;96901.50;8281092;28;20193;-80
2021/05/13 15:58:14;;;;;;;2.00;1.20;;;;;;;16.73;57.04;96895.16;8275459;28;20404;-83
2021/05/13 16:02:18;;;;;;;3.77;1.50;;;;;;;16.93;57.66;96888.25;8279466;28;20209;-83
2021/05/13 16:06:20;;;;;;;4.43;1.20;;;;;;;16.98;57.91;96887.81;8282057;28;20233;-83
2021/05/13 16:10:29;;;;;;;5.77;1.47;;;;;;;16.92;59.18;96888.38;8282013;28;20221;-83
2021/05/13 16:14:31;;;;;;;3.10;1.63;;;;;;;16.99;57.09;96892.94;8284311;28;20186;-83
2021/05/13 16:18:34;;;;;;;4.37;2.60;;;;;;;16.95;55.40;96894.16;8282089;28;20515;-86
2021/05/13 16:22:37;;;;;;;2.10;1.50;;;;;;;16.98;56.85;96893.91;8279176;28;20363;-85
2021/05/13 16:26:40;;;;;;;9.17;7.40;;;;;;;16.98;57.08;96888.69;8281839;28;20496;-83
2021/05/13 16:30:43;;;;;;;5.73;2.50;;;;;;;16.92;57.64;96891.81;8281893;28;20244;-82
2021/05/13 16:34:46;;;;;;;12.80;11.50;;;;;;;16.92;57.78;96896.22;8281472;28;20195;-85
2021/05/13 16:38:49;;;;;;;6.47;5.53;;;;;;;16.84;57.34;96896.06;8281210;28;20376;-86
2021/05/13 16:42:51;;;;;;;5.37;2.10;;;;;;;16.86;58.34;96899.38;8281043;28;20266;-84
2021/05/13 16:46:53;;;;;;;4.20;1.47;;;;;;;16.72;57.94;96895.31;8282650;28;20200;-86
2021/05/13 16:50:57;;;;;;;3.63;1.87;;;;;;;16.70;59.19;96903.28;8279662;28;20225;-86
2021/05/13 16:55:02;;;;;;;3.27;1.73;;;;;;;16.57;58.83;96895.66;8282021;28;20269;-86
2021/05/13 16:59:04;;;;;;;3.93;2.07;;;;;;;16.62;59.13;96897.91;8280896;28;20534;-65
2021/05/13 17:03:07;;;;;;;7.50;4.90;;;;;;;16.54;59.71;96905.53;8281156;28;20221;-65
2021/05/13 17:07:17;;;;;;;6.03;4.20;;;;;;;16.48;58.14;96909.50;8278488;28;20280;-65
2021/05/13 17:11:21;;;;;;;4.60;3.13;;;;;;;16.40;58.88;96918.00;8280834;28;20202;-65
2021/05/13 17:15:23;;;;;;;6.17;3.60;;;;;;;16.39;58.91;96918.13;8281252;28;20220;-65
2021/05/13 17:19:25;;;;;;;4.30;2.10;;;;;;;16.35;60.01;96921.97;8281253;28;20278;-65
2021/05/13 17:23:29;;;;;;;2.70;1.97;;;;;;;16.28;59.86;96918.19;8280763;28;20201;-65
2021/05/13 17:27:32;;;;;;;5.10;4.30;;;;;;;16.22;59.36;96928.22;8280444;28;20206;-65
2021/05/13 17:31:35;;;;;;;4.03;3.17;;;;;;;16.29;58.93;96930.31;8280379;28;20500;-65
2021/05/13 17:35:57;;;;;;;2.60;1.50;;;;;;;16.20;59.13;96927.53;8286986;28;20212;-65
2021/05/13 17:40:00;;;;;;;3.20;1.60;;;;;;;16.13;59.79;96929.00;8286357;28;20205;-65
2021/05/13 17:44:04;;;;;;;5.83;2.83;;;;;;;16.08;59.95;96927.72;8286199;28;20329;-65
2021/05/13 17:48:08;;;;;;;6.30;4.93;;;;;;;16.05;60.11;96930.56;8285927;28;20225;-64
2021/05/13 17:52:11;;;;;;;5.63;4.40;;;;;;;16.06;60.84;96932.25;8285442;28;20211;-65
2021/05/13 17:56:14;;;;;;;6.90;4.30;;;;;;;16.03;60.29;96933.34;8284875;28;20519;-64
2021/05/13 18:00:20;;;;;;;8.07;4.50;;;;;;;15.94;59.96;96934.91;8285243;28;20210;-65
2021/05/13 18:04:23;;;;;;;5.47;3.03;;;;;;;15.91;60.03;96942.16;8285076;28;20236;-71
2021/05/13 18:08:25;;;;;;;3.60;2.10;;;;;;;15.78;59.42;96939.72;8286156;28;20233;-71
2021/05/13 18:12:29;;;;;;;2.17;1.70;;;;;;;15.72;59.82;96940.19;8285701;28;20209;-75
2021/05/13 18:16:31;;;;;;;3.90;1.60;;;;;;;15.64;58.77;96935.59;8284746;28;20194;-77
2021/05/13 18:20:35;;;;;;;4.10;1.43;;;;;;;15.61;59.01;96938.44;8284760;28;21521;-78
2021/05/13 18:24:37;;;;;;;5.57;1.60;;;;;;;15.63;59.20;96946.97;8277177;28;20396;-78
2021/05/13 18:28:41;;;;;;;3.20;1.40;;;;;;;15.65;59.08;96945.09;8283763;28;20241;-75
2021/05/13 18:32:45;;;;;;;2.57;1.33;;;;;;;15.63;58.73;96947.84;8285203;28;20198;-65
2021/05/13 18:36:47;;;;;;;5.53;1.70;;;;;;;15.60;59.20;96949.84;8285188;28;20574;-65
2021/05/13 18:40:49;;;;;;;2.33;1.30;;;;;;;15.52;59.28;96954.88;8284505;28;20206;-65
2021/05/13 18:44:53;;;;;;;2.30;1.17;;;;;;;15.56;58.93;96957.09;8284365;28;20202;-65
2021/05/13 18:48:55;;;;;;;2.63;1.60;;;;;;;15.49;59.26;96961.16;8284422;28;20233;-65
2021/05/13 18:53:00;;;;;;;6.53;1.97;;;;;;;15.43;59.23;96961.66;8284358;28;20201;-65
2021/05/13 18:57:06;;;;;;;3.00;1.90;;;;;;;15.40;59.92;96967.09;8283967;28;20202;-64
2021/05/13 19:01:09;;;;;;;6.63;1.60;;;;;;;15.44;59.54;96979.78;8285406;28;20377;-64